South Washington, Indiana
Current Conditions -  °F | °C
As of 2:35 PM on Friday 28 Nov 2014 (Local Time) from KDCY Reporting Station
Clear Clear  
Wind Chill: -1°   Ceiling: Unl
Heat Index:   Visibility: 10mi
Dew Point: -1°   Wind: 15mph
Humidity: 70%   Direction: 160°SSE
Pressure: 30.13"   Gusts: 20mph
Location:  38.6427°N, 87.1768°W
Report Text: KDCY 282035Z AUTO 16013G17KT 10SM CLR 04/M01 A3013 RMK AO2 T00401011
Loading
Personal Weather Stations






























Interactive Weather Map New forecast layout! Learn more

10-Day Weather Forecast

Advertisements
Track Severe Weather on mobile